Time;durP1;ratioP1;P1;durP2;ratioP2;P2;SDS_P1;SDS_P2;PMS_P1;PMS_P2;Temp;Humidity;BMP_temperature;BMP_pressure;BME280_temperature;BME280_humidity;BME280_pressure;Samples;Min_cycle;Max_cycle;Signal;HPM_P1;HPM_P2
2022/03/28 00:01:11;;;;;;;17.55;11.55;;;;;;;5.00;100.00;101594.13;5047322;28;20020;-55
2022/03/28 00:03:37;;;;;;;16.92;11.45;;;;;;;4.59;100.00;101529.41;5045485;28;20039;-54
2022/03/28 00:06:03;;;;;;;21.35;13.23;;;;;;;4.94;100.00;101588.97;5046451;28;20036;-55
2022/03/28 00:08:29;;;;;;;22.77;12.85;;;;;;;4.97;100.00;101591.56;5030089;28;20020;-52
2022/03/28 00:10:54;;;;;;;17.52;12.55;;;;;;;5.02;100.00;101602.81;5047164;28;21038;-53
2022/03/28 00:13:20;;;;;;;15.73;10.70;;;;;;;5.02;100.00;101597.63;5045753;28;20857;-52
2022/03/28 00:15:45;;;;;;;20.27;12.25;;;;;;;4.96;100.00;101592.47;5045472;28;20121;-53
2022/03/28 00:18:11;;;;;;;23.92;12.55;;;;;;;4.88;100.00;101589.03;5046718;28;20020;-53
2022/03/28 00:20:36;;;;;;;18.40;11.02;;;;;;;4.67;100.00;101563.16;5047204;28;20035;-53
2022/03/28 00:23:03;;;;;;;19.58;12.18;;;;;;;4.88;100.00;101588.16;5049368;28;20039;-52
2022/03/28 00:25:29;;;;;;;17.60;12.52;;;;;;;4.64;100.00;101544.97;5049452;28;20944;-52
2022/03/28 00:27:54;;;;;;;21.40;13.02;;;;;;;4.88;100.00;101573.41;5049845;28;20139;-54
2022/03/28 00:30:20;;;;;;;22.77;12.93;;;;;;;4.84;100.00;101576.91;5049943;28;20888;-53
2022/03/28 00:32:45;;;;;;;20.50;11.25;;;;;;;4.85;100.00;101576.06;5049710;28;20032;-54
2022/03/28 00:35:10;;;;;;;24.95;14.32;;;;;;;4.64;100.00;101538.03;5049393;28;20852;-54
2022/03/28 00:37:38;;;;;;;16.90;12.82;;;;;;;4.73;100.00;101547.50;5049339;28;20942;-55
2022/03/28 00:40:05;;;;;;;17.52;11.98;;;;;;;4.76;100.00;101563.13;5049883;28;20032;-52
2022/03/28 00:42:30;;;;;;;17.65;11.27;;;;;;;4.67;100.00;101557.09;5049538;28;20142;-52
2022/03/28 00:44:56;;;;;;;17.17;11.40;;;;;;;4.43;100.00;101522.56;5049216;28;20156;-53
2022/03/28 00:47:21;;;;;;;16.75;13.10;;;;;;;4.53;100.00;101538.97;5046192;28;20568;-54
2022/03/28 00:49:46;;;;;;;18.48;12.90;;;;;;;4.64;100.00;101553.66;5045659;28;20028;-52
2022/03/28 00:52:12;;;;;;;18.75;13.45;;;;;;;4.36;100.00;101504.44;5049396;28;20028;-53
2022/03/28 00:54:38;;;;;;;20.55;13.68;;;;;;;4.51;100.00;101535.53;5031490;28;20024;-55
2022/03/28 00:57:04;;;;;;;20.23;13.55;;;;;;;4.45;100.00;101535.56;5050333;28;20125;-53
2022/03/28 00:59:32;;;;;;;21.60;13.10;;;;;;;4.42;100.00;101530.41;5048701;28;20028;-54
2022/03/28 01:01:58;;;;;;;19.42;12.60;;;;;;;4.36;100.00;101531.28;5049235;28;20062;-53
2022/03/28 01:04:24;;;;;;;19.38;13.27;;;;;;;4.32;100.00;101527.00;5043391;28;20047;-53
2022/03/28 01:06:49;;;;;;;18.73;13.30;;;;;;;4.26;100.00;101523.56;5036433;28;20226;-52
2022/03/28 01:09:15;;;;;;;18.08;12.20;;;;;;;4.25;100.00;101521.84;5046220;28;20125;-52
2022/03/28 01:11:42;;;;;;;18.00;12.23;;;;;;;4.02;100.00;101496.81;5031309;28;20873;-54
2022/03/28 01:14:07;;;;;;;21.20;12.30;;;;;;;4.11;100.00;101522.78;5031284;28;20024;-53
2022/03/28 01:19:23;;;;;;;19.55;13.70;;;;;;;4.08;100.00;101512.41;5010379;28;20040;-51
2022/03/28 01:21:50;;;;;;;19.13;13.68;;;;;;;4.08;100.00;101515.00;5030768;28;20138;-54
2022/03/28 01:24:15;;;;;;;19.02;14.18;;;;;;;4.02;100.00;101499.41;5050046;28;20060;-50
2022/03/28 01:26:41;;;;;;;22.10;13.88;;;;;;;4.03;100.00;101511.56;5049666;28;20101;-51
2022/03/28 01:29:06;;;;;;;18.73;12.75;;;;;;;4.01;100.00;101513.31;5048692;28;20970;-53
2022/03/28 01:31:32;;;;;;;24.67;14.07;;;;;;;3.90;100.00;101499.50;5049760;28;20031;-55
2022/03/28 01:33:57;;;;;;;18.77;13.27;;;;;;;3.77;100.00;101476.16;5049771;28;20024;-54
2022/03/28 01:36:25;;;;;;;19.85;13.27;;;;;;;3.89;100.00;101504.69;5051569;28;20085;-54
2022/03/28 01:38:51;;;;;;;18.58;13.13;;;;;;;3.87;100.00;101494.31;5023319;28;20062;-54
2022/03/28 01:41:16;;;;;;;19.65;14.20;;;;;;;3.90;100.00;101499.50;5049361;28;20028;-54
2022/03/28 01:43:41;;;;;;;19.15;14.15;;;;;;;3.90;100.00;101494.28;5048137;28;20093;-55
2022/03/28 01:46:07;;;;;;;20.42;15.32;;;;;;;3.81;100.00;101489.16;5049336;28;20059;-54
2022/03/28 01:48:32;;;;;;;20.27;14.65;;;;;;;3.66;100.00;101468.41;5047603;28;20844;-54
2022/03/28 01:50:57;;;;;;;19.92;14.32;;;;;;;3.78;100.00;101489.19;5048849;28;20036;-54
2022/03/28 01:53:23;;;;;;;24.85;14.27;;;;;;;3.74;100.00;101487.47;5048309;28;20043;-53
2022/03/28 01:55:48;;;;;;;22.85;13.13;;;;;;;3.19;100.00;101401.09;5047610;28;20032;-54
2022/03/28 01:58:14;;;;;;;20.35;13.63;;;;;;;3.71;100.00;101492.66;5047749;28;20939;-54
2022/03/28 02:00:40;;;;;;;24.40;14.55;;;;;;;3.79;100.00;101496.06;5049105;28;20064;-53
2022/03/28 02:03:05;;;;;;;21.30;14.25;;;;;;;3.65;100.00;101461.50;5047147;28;20969;-52
2022/03/28 02:05:30;;;;;;;20.65;15.52;;;;;;;3.79;100.00;101487.41;5049567;28;20024;-55
2022/03/28 02:07:56;;;;;;;22.33;15.25;;;;;;;3.38;100.00;101425.28;5047413;28;20456;-53
2022/03/28 02:10:22;;;;;;;19.45;14.25;;;;;;;3.59;100.00;101467.59;5048958;28;20031;-55
2022/03/28 02:12:47;;;;;;;17.30;12.95;;;;;;;3.49;100.00;101470.22;5049393;28;20024;-52
2022/03/28 02:15:14;;;;;;;18.50;14.23;;;;;;;3.54;100.00;101487.56;5048524;28;20027;-54
2022/03/28 02:17:39;;;;;;;23.23;14.43;;;;;;;3.54;100.00;101486.69;5049232;28;20856;-55
2022/03/28 02:20:07;;;;;;;20.75;14.68;;;;;;;3.61;100.00;101483.19;5048067;28;20066;-54
2022/03/28 02:22:36;;;;;;;21.95;15.95;;;;;;;3.56;100.00;101471.94;5047170;28;20039;-55
2022/03/28 02:25:03;;;;;;;24.02;16.55;;;;;;;3.54;100.00;101476.28;5030564;28;20132;-53
2022/03/28 02:27:28;;;;;;;24.40;16.85;;;;;;;3.28;100.00;101442.59;5046814;28;20047;-54
2022/03/28 02:29:54;;;;;;;24.33;14.02;;;;;;;3.40;100.00;101471.16;5047092;28;20020;-52
2022/03/28 02:32:19;;;;;;;25.17;15.82;;;;;;;3.29;100.00;101464.25;5046680;28;20941;-55
2022/03/28 02:34:44;;;;;;;24.73;17.75;;;;;;;3.35;100.00;101477.19;5048160;28;20061;-54
2022/03/28 02:37:10;;;;;;;29.17;17.15;;;;;;;3.01;100.00;101419.31;5047109;28;20877;-53
2022/03/28 02:39:35;;;;;;;23.77;15.02;;;;;;;3.11;100.00;101440.97;5046853;28;20034;-51
2022/03/28 02:42:01;;;;;;;25.63;14.95;;;;;;;3.16;100.00;101465.16;5046968;28;20024;-51
2022/03/28 02:44:26;;;;;;;20.70;15.10;;;;;;;3.06;100.00;101459.13;5047796;28;20920;-54
2022/03/28 02:46:52;;;;;;;21.85;15.38;;;;;;;3.12;100.00;101455.66;5046583;28;20028;-53
2022/03/28 02:49:19;;;;;;;25.02;16.30;;;;;;;3.10;100.00;101440.09;5046568;28;20135;-54
2022/03/28 02:51:45;;;;;;;26.15;15.93;;;;;;;3.12;100.00;101445.25;5046629;28;20028;-51
2022/03/28 02:54:10;;;;;;;24.70;17.65;;;;;;;3.05;100.00;101429.72;5028447;28;20032;-50
2022/03/28 02:56:35;;;;;;;24.52;17.05;;;;;;;3.06;100.00;101418.47;5046543;28;20876;-54
2022/03/28 02:59:01;;;;;;;21.60;16.20;;;;;;;2.98;100.00;101427.13;5046558;28;20135;-54
2022/03/28 03:01:27;;;;;;;23.25;15.07;;;;;;;3.01;100.00;101438.38;5046052;28;20081;-53
2022/03/28 03:03:52;;;;;;;22.63;15.77;;;;;;;2.94;100.00;101423.66;5048079;28;20028;-54
2022/03/28 03:06:17;;;;;;;24.27;15.45;;;;;;;2.90;100.00;101419.38;5028569;28;20024;-53
2022/03/28 03:08:43;;;;;;;24.17;16.40;;;;;;;2.96;100.00;101429.75;5046038;28;20969;-52
2022/03/28 03:11:09;;;;;;;27.52;17.15;;;;;;;2.97;100.00;101425.41;5046232;28;20903;-51
2022/03/28 03:13:37;;;;;;;23.42;16.60;;;;;;;2.48;100.00;101336.44;5046146;28;20038;-53
2022/03/28 03:16:06;;;;;;;32.70;17.70;;;;;;;2.92;100.00;101417.63;5046744;28;20101;-54
2022/03/28 03:18:31;;;;;;;27.02;16.15;;;;;;;2.87;100.00;101406.38;5047186;28;20094;-55
2022/03/28 03:20:58;;;;;;;25.30;16.77;;;;;;;2.91;100.00;101428.88;5046283;28;20135;-53
2022/03/28 03:23:24;;;;;;;27.90;16.50;;;;;;;2.84;100.00;101416.78;5046405;28;20078;-50
2022/03/28 03:25:49;;;;;;;24.10;15.85;;;;;;;2.79;100.00;101409.88;5045844;28;20856;-53
2022/03/28 03:28:16;;;;;;;22.83;17.08;;;;;;;2.71;100.00;101396.03;5046001;28;20030;-52
2022/03/28 03:30:41;;;;;;;36.38;18.10;;;;;;;2.77;100.00;101404.69;5045834;28;20042;-54
2022/03/28 03:33:07;;;;;;;26.70;17.52;;;;;;;2.73;100.00;101402.13;5046077;28;20138;-53
2022/03/28 03:35:33;;;;;;;29.10;17.90;;;;;;;2.60;100.00;101393.50;5046302;28;20553;-52
2022/03/28 03:37:58;;;;;;;28.30;18.17;;;;;;;2.74;100.00;101409.88;5063481;28;20828;-54
2022/03/28 03:40:24;;;;;;;26.42;17.90;;;;;;;2.66;100.00;101396.06;5067104;28;20115;-50
2022/03/28 03:42:49;;;;;;;26.00;18.02;;;;;;;2.66;100.00;101392.63;5066702;28;20035;-54
2022/03/28 03:45:14;;;;;;;24.65;18.15;;;;;;;2.64;100.00;101397.78;5066033;28;20132;-53
2022/03/28 03:47:40;;;;;;;28.52;17.83;;;;;;;2.64;100.00;101400.38;5067005;28;20887;-54
2022/03/28 03:50:06;;;;;;;25.70;18.05;;;;;;;2.63;100.00;101403.88;5067777;28;20024;-54
2022/03/28 03:52:31;;;;;;;28.38;18.88;;;;;;;2.61;100.00;101400.41;5066090;28;20467;-52
2022/03/28 03:54:57;;;;;;;25.27;17.98;;;;;;;2.57;100.00;101390.88;5065679;28;20772;-54
2022/03/28 03:57:22;;;;;;;28.02;18.25;;;;;;;2.56;100.00;101404.75;5065750;28;20290;-51
2022/03/28 03:59:48;;;;;;;24.20;18.75;;;;;;;2.47;100.00;101389.16;5067575;28;20534;-55
2022/03/28 04:02:13;;;;;;;25.90;19.38;;;;;;;2.49;100.00;101395.25;5067083;28;20805;-54
2022/03/28 04:04:39;;;;;;;30.98;21.17;;;;;;;2.50;100.00;101402.16;5067372;28;20024;-54
2022/03/28 04:07:04;;;;;;;27.05;17.85;;;;;;;2.42;100.00;101386.59;5067596;28;20884;-53
2022/03/28 04:09:29;;;;;;;27.15;19.83;;;;;;;2.17;100.00;101364.13;5065805;28;20039;-54
2022/03/28 04:11:55;;;;;;;24.38;18.90;;;;;;;2.29;100.00;101391.81;5066113;28;20096;-54
2022/03/28 04:14:20;;;;;;;30.75;21.30;;;;;;;2.20;100.00;101381.44;5065861;28;20027;-51
2022/03/28 04:16:45;;;;;;;32.67;20.58;;;;;;;2.26;100.00;101389.22;5065813;28;20036;-53
2022/03/28 04:19:12;;;;;;;28.52;21.77;;;;;;;2.19;100.00;101377.13;5067769;28;20067;-53
2022/03/28 04:21:38;;;;;;;30.40;21.42;;;;;;;2.19;100.00;101379.72;5067393;28;20048;-54
2022/03/28 04:24:03;;;;;;;29.65;21.40;;;;;;;2.00;100.00;101351.19;5066195;28;20819;-55
2022/03/28 04:26:29;;;;;;;32.60;22.30;;;;;;;2.17;100.00;101382.28;5067528;28;20138;-54
2022/03/28 04:28:54;;;;;;;27.08;19.77;;;;;;;2.13;100.00;101377.13;5065641;28;20036;-53
2022/03/28 04:31:20;;;;;;;28.67;19.88;;;;;;;2.17;100.00;101389.19;5066514;28;20134;-53
2022/03/28 04:33:45;;;;;;;33.60;21.98;;;;;;;2.08;100.00;101373.66;5066753;28;20023;-52
2022/03/28 04:36:10;;;;;;;33.35;20.73;;;;;;;2.09;100.00;101368.47;5066556;28;20896;-53
2022/03/28 04:38:36;;;;;;;28.23;21.88;;;;;;;2.12;100.00;101376.25;5066325;28;20125;-54
2022/03/28 04:41:01;;;;;;;27.45;20.52;;;;;;;2.14;100.00;101379.69;5067380;28;20066;-54
2022/03/28 04:43:27;;;;;;;37.25;22.60;;;;;;;2.09;100.00;101372.78;5065165;28;20028;-54
2022/03/28 04:45:52;;;;;;;33.20;21.02;;;;;;;2.07;100.00;101367.59;5065787;28;20024;-54
2022/03/28 04:48:17;;;;;;;30.38;22.92;;;;;;;2.03;100.00;101361.53;5065175;28;20894;-53
2022/03/28 04:50:43;;;;;;;32.05;22.48;;;;;;;2.05;100.00;101372.81;5092509;28;20500;-54
2022/03/28 04:53:08;;;;;;;32.83;23.15;;;;;;;2.05;100.00;101379.72;5112929;28;20027;-50
2022/03/28 04:55:34;;;;;;;32.30;23.75;;;;;;;2.05;100.00;101384.88;5066051;28;20876;-54
2022/03/28 04:58:00;;;;;;;35.22;23.23;;;;;;;1.93;100.00;101372.78;5065616;28;20030;-53
2022/03/28 05:00:25;;;;;;;36.58;24.30;;;;;;;1.87;100.00;101370.19;5065251;28;20140;-53
2022/03/28 05:02:50;;;;;;;35.72;24.15;;;;;;;1.65;100.00;101334.78;5065140;28;20943;-52
2022/03/28 05:05:16;;;;;;;32.55;23.52;;;;;;;1.87;100.00;101377.97;5065301;28;20031;-55
2022/03/28 05:07:41;;;;;;;31.05;24.48;;;;;;;1.83;100.00;101370.16;5067155;28;20445;-53
2022/03/28 05:10:07;;;;;;;34.05;25.50;;;;;;;1.38;100.00;101306.25;5068474;28;20589;-52
2022/03/28 05:12:33;;;;;;;31.98;24.52;;;;;;;1.81;100.00;101377.09;5068659;28;20879;-52
2022/03/28 05:14:59;;;;;;;31.55;23.08;;;;;;;1.83;100.00;101375.34;5067912;28;20035;-53
2022/03/28 05:17:26;;;;;;;37.10;24.85;;;;;;;1.81;100.00;101369.31;5068258;28;20111;-52
2022/03/28 05:19:53;;;;;;;40.17;26.67;;;;;;;1.83;100.00;101381.41;5068205;28;20104;-54
2022/03/28 05:22:19;;;;;;;36.55;24.77;;;;;;;1.83;100.00;101376.22;5067942;28;20024;-53
2022/03/28 05:24:45;;;;;;;35.30;24.75;;;;;;;1.82;100.00;101377.09;5068494;28;20910;-53
2022/03/28 05:27:10;;;;;;;34.35;24.02;;;;;;;1.81;100.00;101370.19;5069190;28;20067;-49
2022/03/28 05:29:35;;;;;;;36.45;25.08;;;;;;;1.74;100.00;101365.88;5068336;28;20036;-52
2022/03/28 05:32:01;;;;;;;34.78;25.75;;;;;;;1.78;100.00;101365.00;5049701;28;20347;-53
2022/03/28 05:34:28;;;;;;;40.00;24.88;;;;;;;1.81;100.00;101372.78;5067736;28;20177;-53
2022/03/28 05:36:54;;;;;;;37.17;26.27;;;;;;;1.61;100.00;101333.03;5048568;28;20067;-52
2022/03/28 05:39:20;;;;;;;37.97;26.17;;;;;;;1.66;100.00;101344.25;5050355;28;20020;-53
2022/03/28 05:41:45;;;;;;;39.72;26.70;;;;;;;1.63;100.00;101341.66;5050152;28;20914;-53
2022/03/28 05:44:11;;;;;;;38.38;25.55;;;;;;;1.67;100.00;101346.00;5048888;28;20082;-53
2022/03/28 05:46:36;;;;;;;38.42;26.17;;;;;;;1.84;100.00;101365.00;5048587;28;20932;-53
2022/03/28 05:49:01;;;;;;;34.20;25.85;;;;;;;1.69;100.00;101341.66;5049774;28;20054;-54
2022/03/28 05:51:27;;;;;;;38.22;26.17;;;;;;;1.91;100.00;101371.06;5048416;28;20032;-53
2022/03/28 05:53:52;;;;;;;41.72;29.33;;;;;;;1.96;100.00;101371.94;5049024;28;20024;-51
2022/03/28 05:56:17;;;;;;;35.58;27.20;;;;;;;2.03;100.00;101371.91;5049131;28;20028;-52
2022/03/28 05:58:43;;;;;;;38.53;28.58;;;;;;;2.10;100.00;101370.19;5048786;28;20144;-53
2022/03/28 06:01:09;;;;;;;45.03;28.13;;;;;;;1.47;100.00;101254.47;5049459;28;20074;-51
2022/03/28 06:03:34;;;;;;;42.17;28.45;;;;;;;2.18;100.00;101370.19;5068105;28;20495;-55
2022/03/28 06:06:02;;;;;;;35.35;27.48;;;;;;;1.97;100.00;101314.03;5050414;28;20031;-54
2022/03/28 06:08:27;;;;;;;37.00;26.30;;;;;;;2.23;100.00;101355.50;5051456;28;20903;-53
2022/03/28 06:10:52;;;;;;;40.45;27.80;;;;;;;2.35;100.00;101368.44;5049738;28;20064;-55
2022/03/28 06:13:18;;;;;;;38.22;29.02;;;;;;;2.25;100.00;101343.41;5048975;28;20028;-53
2022/03/28 06:15:44;;;;;;;40.05;27.42;;;;;;;2.43;100.00;101354.59;5053241;28;20079;-54
2022/03/28 06:18:09;;;;;;;40.67;27.55;;;;;;;2.58;100.00;101361.50;5048180;28;20025;-55
2022/03/28 06:20:35;;;;;;;42.33;29.13;;;;;;;2.68;100.00;101370.97;5048000;28;20881;-52
2022/03/28 06:23:02;;;;;;;42.25;29.00;;;;;;;2.76;100.00;101366.66;5047934;28;20877;-51
2022/03/28 06:25:28;;;;;;;40.05;28.88;;;;;;;2.77;100.00;101346.75;5048176;28;20036;-54
2022/03/28 06:27:53;;;;;;;42.47;28.13;;;;;;;2.97;100.00;101363.97;5045866;28;20065;-54
2022/03/28 06:30:19;;;;;;;45.80;27.98;;;;;;;3.07;100.00;101365.69;5048007;28;20086;-52
2022/03/28 06:32:45;;;;;;;45.38;27.85;;;;;;;3.16;100.00;101361.28;5045837;28;20035;-51
2022/03/28 06:35:10;;;;;;;44.50;31.38;;;;;;;2.93;100.00;101302.56;5045610;28;20036;-52
2022/03/28 06:37:36;;;;;;;44.88;31.92;;;;;;;3.39;100.00;101354.25;5046691;28;20024;-53
2022/03/28 06:40:03;;;;;;;44.25;29.25;;;;;;;3.49;100.00;101350.72;5046446;28;20020;-55
2022/03/28 06:42:31;;;;;;;47.53;30.23;;;;;;;3.65;100.00;101359.31;5029850;28;20135;-54
2022/03/28 06:44:56;;;;;;;43.00;31.58;;;;;;;3.73;100.00;101341.91;5045921;28;20028;-55
2022/03/28 06:47:22;;;;;;;43.70;29.05;;;;;;;3.76;100.00;101332.34;5045630;28;20146;-52
2022/03/28 06:49:47;;;;;;;37.53;29.17;;;;;;;4.04;100.00;101359.88;5046778;28;20032;-54
2022/03/28 06:52:13;;;;;;;50.72;34.17;;;;;;;4.19;100.00;101361.47;5047516;28;20845;-55
2022/03/28 06:54:39;;;;;;;46.92;34.88;;;;;;;4.39;100.00;101356.09;5045566;28;20094;-53
2022/03/28 06:57:04;;;;;;;47.40;34.25;;;;;;;4.56;100.00;101341.19;5045495;28;20034;-55
2022/03/28 06:59:30;;;;;;;46.10;35.15;;;;;;;4.75;100.00;101340.09;5046163;28;20035;-56
2022/03/28 07:01:57;;;;;;;42.13;32.80;;;;;;;4.71;100.00;101325.38;5045793;28;20094;-54
2022/03/28 07:04:22;;;;;;;52.38;35.53;;;;;;;4.96;100.00;101336.38;5045061;28;20086;-54
2022/03/28 07:06:48;;;;;;;51.92;33.65;;;;;;;5.15;100.00;101338.75;5045462;28;20020;-53
2022/03/28 07:09:14;;;;;;;46.60;34.33;;;;;;;5.23;100.00;101325.63;5045552;28;20473;-54
2022/03/28 07:11:39;;;;;;;51.22;38.95;;;;;;;5.48;100.00;101349.56;5045209;28;20774;-55
2022/03/28 07:14:05;;;;;;;54.03;37.45;;;;;;;5.71;100.00;101363.16;5045355;28;20028;-55
2022/03/28 07:16:31;;;;;;;48.53;34.42;;;;;;;5.45;100.00;101274.03;5045105;28;20028;-54
2022/03/28 07:18:56;;;;;;;44.42;31.90;;;;;;;5.96;100.00;101325.41;5044751;28;20047;-54
2022/03/28 07:21:22;;;;;;;47.00;32.50;;;;;;;5.92;100.00;101296.78;5046292;28;20020;-54
2022/03/28 07:23:48;;;;;;;52.35;32.13;;;;;;;6.24;100.00;101331.03;5047602;28;20071;-54
2022/03/28 07:26:14;;;;;;;48.78;32.50;;;;;;;6.11;100.00;101293.00;5044780;28;20032;-54
2022/03/28 07:28:40;;;;;;;53.30;32.95;;;;;;;6.54;100.00;101329.59;5045421;28;20959;-54
2022/03/28 07:31:08;;;;;;;43.38;31.63;;;;;;;6.63;100.00;101308.53;5046450;28;20031;-55
2022/03/28 07:33:37;;;;;;;34.58;26.63;;;;;;;6.76;100.00;101310.00;5044965;28;20809;-54
2022/03/28 07:36:03;;;;;;;40.63;27.42;;;;;;;6.69;100.00;101271.88;5044756;28;20031;-54
2022/03/28 07:38:29;;;;;;;42.20;28.92;;;;;;;6.94;100.00;101283.53;5046537;28;20138;-55
2022/03/28 07:40:54;;;;;;;52.90;30.27;;;;;;;7.23;100.00;101301.19;5044903;28;20800;-56
2022/03/28 07:43:20;;;;;;;37.13;26.92;;;;;;;7.43;100.00;101311.22;5045038;28;20036;-55
2022/03/28 07:45:46;;;;;;;34.85;26.30;;;;;;;7.50;100.00;101299.72;5045867;28;20125;-56
2022/03/28 07:48:12;;;;;;;43.42;28.50;;;;;;;7.65;100.00;101315.03;5044321;28;20189;-55
2022/03/28 07:50:37;;;;;;;44.67;30.08;;;;;;;7.79;100.00;101302.50;5044340;28;20036;-55
2022/03/28 07:53:03;;;;;;;43.05;29.83;;;;;;;7.79;100.00;101281.56;5044357;28;20020;-56
2022/03/28 07:55:29;;;;;;;42.33;29.08;;;;;;;8.04;100.00;101295.75;5044554;28;20516;-54
2022/03/28 07:57:54;;;;;;;42.08;30.20;;;;;;;8.18;100.00;101298.88;5044365;28;20016;-54
2022/03/28 08:00:20;;;;;;;39.13;30.30;;;;;;;8.41;100.00;101302.69;5044771;28;20052;-54
2022/03/28 08:02:46;;;;;;;45.55;31.67;;;;;;;8.57;100.00;101293.50;5044754;28;20032;-54
2022/03/28 08:05:12;;;;;;;44.22;30.83;;;;;;;8.84;100.00;101302.34;5044432;28;20028;-54
2022/03/28 08:07:38;;;;;;;61.17;32.95;;;;;;;9.05;100.00;101294.75;5044795;28;20020;-54
2022/03/28 08:10:05;;;;;;;58.25;36.30;;;;;;;9.20;100.00;101291.66;5044617;28;20134;-55
2022/03/28 08:12:31;;;;;;;43.88;36.83;;;;;;;9.47;100.00;101302.19;5045630;28;20142;-54
2022/03/28 08:14:57;;;;;;;50.47;39.03;;;;;;;9.70;100.00;101302.31;5047369;28;20152;-56
2022/03/28 08:17:23;;;;;;;57.28;40.72;;;;;;;9.98;100.00;101299.66;5045893;28;20876;-56
2022/03/28 08:19:48;;;;;;;55.22;39.95;;;;;;;10.09;100.00;101277.41;5044752;28;20028;-53
2022/03/28 08:22:14;;;;;;;59.70;42.03;;;;;;;10.31;100.00;101269.66;5045602;28;20883;-55
2022/03/28 08:24:40;;;;;;;55.03;39.30;;;;;;;10.59;100.00;101285.31;5044468;28;20072;-55
2022/03/28 08:27:06;;;;;;;49.20;36.78;;;;;;;10.73;100.00;101290.94;5044311;28;20541;-56
2022/03/28 08:29:32;;;;;;;52.45;37.85;;;;;;;10.85;100.00;101282.56;5045114;28;20067;-55
2022/03/28 08:32:07;;;;;;;50.45;40.25;;;;;;;11.01;100.00;101286.38;5044742;28;20031;-56
2022/03/28 08:34:32;;;;;;;57.30;36.65;;;;;;;11.15;100.00;101277.97;5038794;28;20169;-52
2022/03/28 08:36:58;;;;;;;54.42;36.70;;;;;;;11.33;100.00;101279.00;5044374;28;20126;-55
2022/03/28 08:39:23;;;;;;;48.17;34.83;;;;;;;11.50;100.00;101285.31;5043828;28;20426;-55
2022/03/28 08:41:48;;;;;;;45.22;34.75;;;;;;;11.59;100.00;101270.94;5044570;28;20056;-55
2022/03/28 08:44:15;;;;;;;46.45;33.53;;;;;;;11.60;100.00;101257.72;5048315;28;20036;-52
2022/03/28 08:46:42;;;;;;;42.65;34.53;;;;;;;11.67;100.00;101243.38;5048682;28;20097;-55
2022/03/28 08:49:08;;;;;;;51.40;33.13;;;;;;;11.69;100.00;101228.38;5049198;28;20035;-56
2022/03/28 08:51:34;;;;;;;52.97;36.70;;;;;;;11.81;100.00;101224.41;5049364;28;20031;-55
2022/03/28 08:53:59;;;;;;;44.95;35.17;;;;;;;12.05;100.00;101246.22;5049431;28;20016;-55
2022/03/28 08:56:25;;;;;;;50.20;35.30;;;;;;;12.26;100.00;101259.34;5049602;28;20090;-54
2022/03/28 08:58:50;;;;;;;50.85;36.20;;;;;;;12.38;100.00;101251.81;5049876;28;20867;-55
2022/03/28 09:01:19;;;;;;;53.05;37.05;;;;;;;12.49;100.00;101260.09;5047412;28;20867;-56
2022/03/28 09:03:47;;;;;;;56.15;36.05;;;;;;;12.54;100.00;101252.88;5047714;28;20040;-56
2022/03/28 09:06:36;;;;;;;41.15;34.03;;;;;;;12.73;100.00;101253.75;5047915;28;20056;-56
2022/03/28 09:09:22;;;;;;;47.78;35.70;;;;;;;12.84;100.00;101259.41;5050433;28;20035;-55
2022/03/28 09:11:51;;;;;;;50.97;39.15;;;;;;;12.96;100.00;101261.44;5049288;28;20155;-54
2022/03/28 09:14:23;;;;;;;46.47;33.78;;;;;;;12.99;100.00;101257.81;5047743;28;20082;-53
2022/03/28 09:17:16;;;;;;;50.90;34.90;;;;;;;12.98;100.00;101235.84;5047771;28;20838;-55
2022/03/28 09:19:49;;;;;;;48.47;36.20;;;;;;;13.16;100.00;101245.59;5048976;28;20830;-55
2022/03/28 09:22:17;;;;;;;54.03;35.53;;;;;;;13.27;100.00;101248.56;5048213;28;20420;-55
2022/03/28 09:24:45;;;;;;;58.90;36.10;;;;;;;13.35;100.00;101239.44;5048379;28;20145;-55
2022/03/28 09:27:16;;;;;;;44.53;34.78;;;;;;;13.50;100.00;101244.81;5046961;28;20643;-54
2022/03/28 09:30:15;;;;;;;49.08;34.83;;;;;;;13.55;100.00;101210.28;5047681;28;20135;-56
2022/03/28 09:32:58;;;;;;;46.63;36.03;;;;;;;13.81;100.00;101220.41;5032665;28;20036;-56
2022/03/28 09:35:24;;;;;;;51.58;37.97;;;;;;;13.84;100.00;101230.81;5049782;28;20082;-55
2022/03/28 09:38:04;;;;;;;44.28;33.08;;;;;;;13.83;100.00;101219.38;5047519;28;20093;-55
2022/03/28 09:40:51;;;;;;;42.28;33.17;;;;;;;13.95;100.00;101220.56;5051506;28;20066;-54
2022/03/28 09:43:25;;;;;;;48.60;31.23;;;;;;;14.00;100.00;101215.00;5094127;28;20393;-55
2022/03/28 09:45:53;;;;;;;51.20;33.55;;;;;;;14.06;100.00;101214.72;5056365;28;20028;-54
2022/03/28 09:48:19;;;;;;;41.22;32.05;;;;;;;14.09;100.00;101196.91;5030144;28;20095;-58
2022/03/28 09:51:00;;;;;;;38.03;30.13;;;;;;;14.20;100.00;101202.47;5048405;28;20060;-56
2022/03/28 09:53:31;;;;;;;47.25;33.20;;;;;;;14.27;100.00;101209.16;5027514;28;20124;-55
2022/03/28 09:55:59;;;;;;;35.92;28.83;;;;;;;14.30;100.00;101194.91;5029235;28;20415;-55
2022/03/28 09:58:46;;;;;;;38.42;29.63;;;;;;;14.55;100.00;101205.09;5027059;28;20021;-54
2022/03/28 10:01:19;;;;;;;39.72;29.98;;;;;;;14.62;100.00;101203.81;5028706;28;20035;-56
2022/03/28 10:03:52;;;;;;;34.47;29.15;;;;;;;14.61;100.00;101204.75;5027293;28;20044;-55
2022/03/28 10:06:18;;;;;;;45.33;29.55;;;;;;;14.43;100.00;101168.75;5009408;28;20044;-56
2022/03/28 10:08:44;;;;;;;34.90;28.40;;;;;;;14.73;100.00;101199.69;5027634;28;20029;-56
2022/03/28 10:11:10;;;;;;;38.38;27.83;;;;;;;14.79;100.00;101193.19;5027058;28;20893;-56
2022/03/28 10:13:36;;;;;;;36.38;29.75;;;;;;;14.84;100.00;101156.72;5027488;28;20273;-55
2022/03/28 10:16:02;;;;;;;41.47;28.40;;;;;;;15.03;100.00;101190.97;5009025;28;21027;-56
2022/03/28 10:18:33;;;;;;;33.13;27.85;;;;;;;14.91;100.00;101157.22;5027402;28;20021;-56
2022/03/28 10:21:01;;;;;;;44.95;30.65;;;;;;;15.22;100.00;101179.25;5027843;28;20028;-56
2022/03/28 10:23:33;;;;;;;39.67;29.58;;;;;;;15.31;100.00;101177.88;5027970;28;20873;-54
2022/03/28 10:25:59;;;;;;;35.10;28.55;;;;;;;15.44;100.00;101175.38;5028728;28;20028;-56
2022/03/28 10:28:25;;;;;;;46.55;29.30;;;;;;;15.56;100.00;101167.59;5031839;28;20039;-55
2022/03/28 10:31:17;;;;;;;42.17;30.67;;;;;;;15.58;100.00;101168.34;5031579;28;20036;-55
2022/03/28 10:33:47;;;;;;;40.90;27.02;;;;;;;15.60;100.00;101157.69;5033071;28;20037;-56
2022/03/28 10:36:27;;;;;;;40.17;27.73;;;;;;;15.69;100.00;101163.28;5033927;28;20420;-56
2022/03/28 10:38:55;;;;;;;34.60;26.40;;;;;;;15.72;100.00;101163.09;5038534;28;20815;-54
2022/03/28 10:41:21;;;;;;;33.97;28.52;;;;;;;15.70;100.00;101170.31;5039912;28;20776;-55
2022/03/28 10:43:47;;;;;;;32.90;25.80;;;;;;;15.80;100.00;101166.16;5042142;28;20032;-55
2022/03/28 10:46:14;;;;;;;37.08;26.92;;;;;;;15.96;100.00;101163.44;5040347;28;20075;-56
2022/03/28 10:49:09;;;;;;;32.90;27.20;;;;;;;16.22;100.00;101160.06;5042135;28;20028;-55
2022/03/28 10:51:34;;;;;;;32.40;25.05;;;;;;;16.22;100.00;101135.34;5014700;28;20048;-56
2022/03/28 10:54:07;;;;;;;37.75;26.48;;;;;;;16.38;100.00;101133.44;5043343;28;20025;-55
2022/03/28 10:56:38;;;;;;;46.55;26.20;;;;;;;16.64;100.00;101143.31;5051753;28;20053;-54
2022/03/28 10:59:08;;;;;;;34.67;25.95;;;;;;;16.75;100.00;101155.91;5043434;28;20538;-56
2022/03/28 11:01:34;;;;;;;29.80;25.98;;;;;;;16.84;100.00;101156.16;5039989;28;20032;-55
2022/03/28 11:04:11;;;;;;;31.05;27.58;;;;;;;17.00;100.00;101156.00;5042015;28;20024;-54
2022/03/28 11:06:49;;;;;;;35.35;25.17;;;;;;;16.99;100.00;101146.38;5046268;28;20037;-55
2022/03/28 11:09:21;;;;;;;34.97;26.05;;;;;;;17.18;100.00;101138.03;5041323;28;20036;-54